Time;durP1;ratioP1;P1;durP2;ratioP2;P2;SDS_P1;SDS_P2;PMS_P1;PMS_P2;Temp;Humidity;BMP_temperature;BMP_pressure;BME280_temperature;BME280_humidity;BME280_pressure;Samples;Min_cycle;Max_cycle;Signal;HPM_P1;HPM_P2
2022/05/30 00:02:20;;;;;;;8.27;5.20;;;;;;;16.87;62.51;93206.53;4983504;28;20502;-76
2022/05/30 00:04:46;;;;;;;10.13;6.00;;;;;;;16.94;62.96;93219.28;4984006;28;20034;-76
2022/05/30 00:07:11;;;;;;;10.60;5.53;;;;;;;16.92;63.59;93230.38;4985694;28;20030;-75
2022/05/30 00:09:37;;;;;;;7.07;5.30;;;;;;;16.92;63.51;93227.69;4981747;28;20633;-76
2022/05/30 00:12:03;;;;;;;9.38;5.43;;;;;;;16.94;63.65;93232.72;4982858;28;20048;-75
2022/05/30 00:14:29;;;;;;;9.95;6.60;;;;;;;16.90;63.34;93221.94;4979433;28;20548;-76
2022/05/30 00:16:56;;;;;;;10.48;5.30;;;;;;;16.88;63.70;93229.56;4985400;28;20041;-76
2022/05/30 00:19:21;;;;;;;8.75;5.45;;;;;;;16.88;63.58;93237.63;4983974;28;20591;-75
2022/05/30 00:21:46;;;;;;;6.85;5.00;;;;;;;16.72;63.66;93213.66;4982896;28;20017;-76
2022/05/30 00:24:12;;;;;;;8.20;4.97;;;;;;;16.79;63.35;93231.78;4977404;28;20031;-77
2022/05/30 00:26:37;;;;;;;7.93;4.57;;;;;;;16.97;62.74;93238.09;4979808;28;20523;-76
2022/05/30 00:29:06;;;;;;;9.23;5.72;;;;;;;16.92;62.73;93230.38;4983465;28;20046;-76
2022/05/30 00:31:35;;;;;;;7.68;4.22;;;;;;;16.81;63.25;93224.13;4981270;28;20030;-76
2022/05/30 00:34:01;;;;;;;5.82;4.03;;;;;;;16.64;62.76;93203.19;4983764;28;20041;-76
2022/05/30 00:36:26;;;;;;;6.07;4.30;;;;;;;16.74;62.72;93219.44;4981496;28;20049;-76
2022/05/30 00:38:51;;;;;;;8.00;4.45;;;;;;;16.70;62.08;93212.47;4981978;28;20034;-77
2022/05/30 00:41:18;;;;;;;7.15;5.30;;;;;;;16.62;62.23;93205.50;4981856;28;20034;-77
2022/05/30 00:43:47;;;;;;;7.88;4.00;;;;;;;16.68;61.89;93220.88;4982360;28;20556;-76
2022/05/30 00:46:12;;;;;;;5.75;3.92;;;;;;;16.66;61.46;93241.19;4983349;28;20022;-76
2022/05/30 00:49:00;;;;;;;7.47;4.28;;;;;;;16.60;61.43;93229.22;4982220;28;20046;-76
2022/05/30 00:51:49;;;;;;;10.63;4.68;;;;;;;16.64;60.73;93240.78;4977924;28;20047;-76
2022/05/30 00:54:20;;;;;;;8.57;4.63;;;;;;;16.30;61.16;93205.84;4977288;28;20042;-76
2022/05/30 00:56:49;;;;;;;9.48;4.43;;;;;;;16.53;61.63;93235.28;4983197;28;20038;-76
2022/05/30 00:59:14;;;;;;;9.05;4.53;;;;;;;16.54;61.17;93230.69;4978344;28;20125;-76
2022/05/30 01:01:39;;;;;;;8.48;5.05;;;;;;;16.49;61.71;93234.47;4977023;28;20111;-76
2022/05/30 01:06:54;;;;;;;10.77;6.57;;;;;;;16.43;61.28;93243.94;4984441;28;20092;-75
2022/05/30 01:09:25;;;;;;;10.43;7.15;;;;;;;16.42;61.87;93236.28;4985739;28;20161;-77
2022/05/30 01:12:08;;;;;;;12.45;7.38;;;;;;;16.43;61.21;93235.91;4984541;28;20050;-76
2022/05/30 01:14:38;;;;;;;14.32;8.88;;;;;;;16.42;61.80;93238.97;4983830;28;20034;-76
2022/05/30 01:17:08;;;;;;;16.40;8.07;;;;;;;16.12;63.39;93236.22;4983890;28;20038;-76
2022/05/30 01:19:51;;;;;;;15.55;8.35;;;;;;;16.19;62.48;93230.94;4980584;28;20034;-77
2022/05/30 01:22:19;;;;;;;11.95;7.18;;;;;;;16.24;62.54;93230.63;4985335;28;20405;-76
2022/05/30 01:25:10;;;;;;;15.02;7.68;;;;;;;16.27;61.62;93232.59;4976307;28;20025;-76
2022/05/30 01:27:53;;;;;;;15.43;7.78;;;;;;;16.21;61.44;93232.13;4988178;28;20050;-76
2022/05/30 01:30:19;;;;;;;12.43;6.40;;;;;;;16.07;61.04;93221.19;4984142;28;20631;-78
2022/05/30 01:32:44;;;;;;;9.40;6.65;;;;;;;16.02;61.18;93215.38;4986588;28;20334;-77
2022/05/30 01:35:11;;;;;;;11.55;6.93;;;;;;;16.17;61.23;93243.94;4986021;28;20037;-74
2022/05/30 01:37:37;;;;;;;13.10;6.88;;;;;;;16.19;60.16;93250.50;4987724;28;20400;-77
2022/05/30 01:40:03;;;;;;;10.68;5.72;;;;;;;15.96;60.68;93233.69;4986428;28;20037;-77
2022/05/30 01:42:28;;;;;;;10.07;5.25;;;;;;;15.70;61.26;93188.84;4984048;28;20109;-77
2022/05/30 01:44:54;;;;;;;12.07;5.65;;;;;;;15.93;60.25;93234.41;4985340;28;20508;-76
2022/05/30 01:47:19;;;;;;;10.35;4.78;;;;;;;15.87;60.25;93225.13;4983666;28;20034;-76
2022/05/30 01:49:45;;;;;;;8.65;4.95;;;;;;;15.90;60.06;93241.25;4984184;28;20039;-76
2022/05/30 01:52:10;;;;;;;7.60;4.25;;;;;;;15.78;60.85;93244.13;4983857;28;20042;-76
2022/05/30 01:54:36;;;;;;;9.00;5.47;;;;;;;15.79;60.93;93247.59;4984562;28;20026;-77
2022/05/30 01:57:02;;;;;;;9.55;4.70;;;;;;;15.82;60.13;93255.69;4986613;28;20053;-76
2022/05/30 01:59:28;;;;;;;8.70;4.22;;;;;;;15.67;60.33;93239.72;4986614;28;20031;-76
2022/05/30 02:01:53;;;;;;;7.32;4.10;;;;;;;15.72;60.39;93242.09;4984535;28;20042;-75
2022/05/30 02:04:18;;;;;;;9.00;4.10;;;;;;;15.71;60.60;93245.91;4989205;28;20144;-75
2022/05/30 02:06:44;;;;;;;7.20;3.78;;;;;;;15.67;60.29;93235.13;4985408;28;20026;-77
2022/05/30 02:09:09;;;;;;;6.20;3.65;;;;;;;15.56;60.78;93225.38;4985513;28;20149;-76
2022/05/30 02:11:35;;;;;;;7.95;4.20;;;;;;;15.71;60.05;93244.00;4985467;28;20039;-77
2022/05/30 02:14:01;;;;;;;8.50;3.97;;;;;;;15.55;60.45;93237.25;4985014;28;20129;-77
2022/05/30 02:19:10;;;;;;;7.97;4.28;;;;;;;15.50;60.37;93254.38;4984328;28;20033;-78
2022/05/30 02:21:36;;;;;;;8.80;3.97;;;;;;;15.59;60.05;93264.88;4986752;28;20029;-76
2022/05/30 02:24:04;;;;;;;9.18;4.65;;;;;;;15.57;60.24;93270.56;4985991;28;20042;-77
2022/05/30 02:26:29;;;;;;;9.15;5.45;;;;;;;15.46;60.84;93251.63;4987853;28;20401;-76
2022/05/30 02:28:55;;;;;;;12.27;6.75;;;;;;;15.62;60.93;93278.31;4988922;28;20049;-77
2022/05/30 02:31:20;;;;;;;10.27;5.90;;;;;;;15.46;60.51;93251.63;4986748;28;20034;-76
2022/05/30 02:36:39;;;;;;;18.08;6.72;;;;;;;15.56;61.14;93270.94;4984938;28;20049;-76
2022/05/30 02:39:08;;;;;;;17.45;7.82;;;;;;;15.54;61.62;93283.94;4986806;28;20034;-76
2022/05/30 02:41:34;;;;;;;15.65;8.00;;;;;;;15.41;61.52;93251.91;4988091;28;20069;-76
2022/05/30 02:44:00;;;;;;;10.68;6.03;;;;;;;15.63;60.76;93279.09;4984692;28;20447;-74
2022/05/30 02:46:25;;;;;;;12.63;7.88;;;;;;;15.46;60.82;93259.66;4986001;28;20030;-76
2022/05/30 02:48:51;;;;;;;15.93;7.82;;;;;;;15.58;61.38;93290.13;4987742;28;20105;-77
2022/05/30 02:51:16;;;;;;;15.20;8.82;;;;;;;15.43;61.30;93271.09;4988870;28;20559;-77
2022/05/30 02:53:42;;;;;;;17.85;8.88;;;;;;;15.42;61.75;93269.53;4987298;28;20053;-74
2022/05/30 02:56:11;;;;;;;13.63;8.05;;;;;;;15.38;61.58;93271.38;4985313;28;20516;-76
2022/05/30 02:58:36;;;;;;;14.40;7.30;;;;;;;15.28;62.08;93263.91;4986069;28;20041;-77
2022/05/30 03:01:03;;;;;;;16.23;8.40;;;;;;;15.43;61.69;93307.81;4983282;28;20025;-76
2022/05/30 03:03:28;;;;;;;14.02;7.57;;;;;;;15.37;61.54;93299.28;4984080;28;20030;-76
2022/05/30 03:05:54;;;;;;;13.43;8.00;;;;;;;15.49;61.19;93308.34;4986503;28;20500;-76
2022/05/30 03:08:20;;;;;;;15.32;7.32;;;;;;;15.43;61.51;93313.94;4987315;28;20041;-76
2022/05/30 03:10:46;;;;;;;19.20;7.70;;;;;;;15.36;61.62;93308.44;4982185;28;20034;-77
2022/05/30 03:13:12;;;;;;;13.98;7.30;;;;;;;15.27;61.26;93313.25;4987973;28;20113;-76
2022/05/30 03:15:38;;;;;;;11.15;6.47;;;;;;;15.23;61.07;93312.41;4985958;28;20024;-76
2022/05/30 03:18:03;;;;;;;14.77;7.05;;;;;;;15.25;61.02;93318.22;4986669;28;20049;-76
2022/05/30 03:20:29;;;;;;;10.50;6.60;;;;;;;15.23;61.33;93330.38;4968110;28;20049;-77
2022/05/30 03:22:56;;;;;;;9.25;5.85;;;;;;;15.36;60.99;93351.31;4954799;28;20042;-76
2022/05/30 03:25:21;;;;;;;12.05;6.97;;;;;;;15.31;61.86;93348.16;4955605;28;20042;-76
2022/05/30 03:27:47;;;;;;;10.35;6.38;;;;;;;15.35;61.89;93347.09;4955195;28;20023;-76
2022/05/30 03:30:13;;;;;;;10.82;4.97;;;;;;;15.29;62.46;93351.19;4954304;28;20035;-76
2022/05/30 03:32:39;;;;;;;9.55;6.10;;;;;;;15.31;62.70;93365.00;4961349;28;20133;-77
2022/05/30 03:35:05;;;;;;;9.23;5.78;;;;;;;15.38;62.88;93364.38;4955276;28;20043;-74
2022/05/30 03:37:31;;;;;;;8.57;5.05;;;;;;;15.38;63.28;93367.81;4954611;28;20405;-77
2022/05/30 03:39:57;;;;;;;8.90;4.55;;;;;;;15.33;63.24;93360.06;4957147;28;20030;-74
2022/05/30 03:42:22;;;;;;;13.18;5.70;;;;;;;15.34;63.31;93352.81;4953061;28;20483;-77
2022/05/30 03:44:48;;;;;;;9.82;5.82;;;;;;;15.47;63.78;93370.31;4954538;28;20045;-77
2022/05/30 03:47:14;;;;;;;9.10;4.53;;;;;;;15.59;62.88;93388.16;4954150;28;20041;-74
2022/05/30 03:49:40;;;;;;;8.77;5.75;;;;;;;15.56;62.76;93376.22;4954836;28;20047;-75
2022/05/30 03:52:06;;;;;;;12.75;5.50;;;;;;;15.59;63.55;93396.19;4970828;28;20405;-77
2022/05/30 03:54:31;;;;;;;8.40;5.00;;;;;;;15.45;64.58;93394.78;4955505;28;20401;-77
2022/05/30 03:56:57;;;;;;;11.60;4.88;;;;;;;15.49;64.07;93402.13;4955933;28;20046;-77
2022/05/30 03:59:22;;;;;;;6.00;4.15;;;;;;;15.56;63.56;93402.25;4957279;28;20500;-77
2022/05/30 04:01:48;;;;;;;7.13;3.58;;;;;;;15.40;62.03;93378.94;4956211;28;20026;-76
2022/05/30 04:04:14;;;;;;;7.80;3.72;;;;;;;15.41;62.15;93396.59;4954317;28;20027;-75
2022/05/30 04:06:40;;;;;;;5.50;3.65;;;;;;;15.57;62.49;93404.59;4961466;28;20446;-76
2022/05/30 04:09:06;;;;;;;5.05;3.63;;;;;;;15.15;63.88;93398.34;4954026;28;20496;-76
2022/05/30 04:11:31;;;;;;;5.95;3.55;;;;;;;15.19;64.49;93409.91;4953721;28;20047;-76
2022/05/30 04:13:57;;;;;;;7.07;4.15;;;;;;;14.79;65.36;93428.94;4954350;28;20050;-76
2022/05/30 04:16:23;;;;;;;4.82;2.90;;;;;;;15.08;65.18;93425.75;4953165;28;20103;-76
2022/05/30 04:18:49;;;;;;;7.63;2.78;;;;;;;15.18;64.34;93414.50;4954226;28;20019;-76
2022/05/30 04:21:15;;;;;;;4.50;2.85;;;;;;;15.25;63.92;93419.22;4953840;28;20545;-76
2022/05/30 04:23:42;;;;;;;7.00;3.92;;;;;;;15.27;64.97;93428.44;4950918;28;20086;-76
2022/05/30 04:26:09;;;;;;;6.70;3.95;;;;;;;15.51;63.91;93432.00;4954616;28;20092;-76
2022/05/30 04:28:34;;;;;;;7.00;3.60;;;;;;;15.55;63.47;93435.56;4951344;28;20035;-77
2022/05/30 04:31:05;;;;;;;6.88;4.35;;;;;;;15.57;62.95;93420.66;4953714;28;20042;-77
2022/05/30 04:33:32;;;;;;;6.15;3.40;;;;;;;15.74;62.28;93419.47;4952531;28;20528;-76
2022/05/30 04:35:58;;;;;;;6.68;3.92;;;;;;;15.82;62.57;93415.78;4953582;28;20071;-76
2022/05/30 04:38:24;;;;;;;7.35;3.95;;;;;;;15.90;61.12;93396.78;4953177;28;20104;-76
2022/05/30 04:40:49;;;;;;;8.55;3.85;;;;;;;15.85;62.76;93410.47;4952694;28;20696;-77
2022/05/30 04:43:15;;;;;;;7.55;4.57;;;;;;;15.94;60.53;93410.25;4952990;28;20023;-77
2022/05/30 04:45:40;;;;;;;12.55;4.18;;;;;;;16.00;61.80;93421.47;4955215;28;20031;-76
2022/05/30 04:48:06;;;;;;;6.63;3.90;;;;;;;15.81;63.00;93406.97;4951830;28;20047;-77
2022/05/30 04:50:31;;;;;;;11.02;5.35;;;;;;;15.93;63.67;93424.81;4954358;28;20038;-77
2022/05/30 04:52:56;;;;;;;6.25;3.88;;;;;;;15.69;65.31;93406.34;4959941;28;20472;-76
2022/05/30 04:55:22;;;;;;;6.43;4.32;;;;;;;15.18;68.02;93408.34;4954297;28;20039;-76
2022/05/30 04:57:50;;;;;;;10.52;4.50;;;;;;;14.88;69.34;93446.34;4955256;28;20042;-76
2022/05/30 05:00:19;;;;;;;10.35;5.40;;;;;;;14.91;70.65;93442.22;4956175;28;20057;-77
2022/05/30 05:02:45;;;;;;;11.38;5.25;;;;;;;15.19;70.11;93442.84;4956802;28;20454;-76
2022/05/30 05:05:11;;;;;;;10.02;5.47;;;;;;;15.72;68.78;93454.66;4958269;28;20129;-76
2022/05/30 05:07:45;;;;;;;8.52;5.80;;;;;;;15.94;67.37;93450.47;4956899;28;20073;-76
2022/05/30 05:10:47;;;;;;;8.18;4.75;;;;;;;15.52;68.16;93449.66;4956189;28;20023;-77
2022/05/30 05:13:13;;;;;;;9.35;4.88;;;;;;;15.78;67.60;93452.47;4957905;28;20023;-76
2022/05/30 05:15:39;;;;;;;8.52;5.60;;;;;;;15.88;67.02;93451.91;4957282;28;20033;-77
2022/05/30 05:18:05;;;;;;;10.20;6.03;;;;;;;16.05;66.83;93461.41;4956994;28;20982;-76
2022/05/30 05:20:36;;;;;;;10.75;5.38;;;;;;;15.60;67.08;93451.34;4955139;28;20039;-77
2022/05/30 05:23:01;;;;;;;8.10;4.65;;;;;;;16.19;65.84;93457.06;4958241;28;20039;-77
2022/05/30 05:25:27;;;;;;;12.00;5.95;;;;;;;16.10;66.42;93459.22;4956990;28;20038;-76
2022/05/30 05:27:52;;;;;;;12.13;6.20;;;;;;;15.44;67.33;93456.78;4957807;28;20076;-76
2022/05/30 05:30:18;;;;;;;7.53;5.53;;;;;;;15.62;68.60;93465.19;4956377;28;20046;-77
2022/05/30 05:32:44;;;;;;;9.45;5.00;;;;;;;15.99;66.00;93477.00;4957551;28;20580;-77
2022/05/30 05:35:10;;;;;;;9.00;5.43;;;;;;;16.11;65.39;93476.09;4957036;28;20409;-76
2022/05/30 05:37:35;;;;;;;10.07;5.95;;;;;;;15.82;65.69;93475.53;4956113;28;20109;-77
2022/05/30 05:40:01;;;;;;;11.18;6.75;;;;;;;15.69;65.62;93460.75;4955228;28;20089;-76
2022/05/30 05:42:26;;;;;;;9.75;5.78;;;;;;;15.58;66.94;93454.38;4957695;28;20066;-76
2022/05/30 05:44:52;;;;;;;9.35;5.93;;;;;;;15.93;65.21;93422.13;4942579;28;20030;-76
2022/05/30 05:47:17;;;;;;;8.68;6.15;;;;;;;16.67;63.66;93481.72;4955265;28;20513;-76
2022/05/30 05:49:42;;;;;;;14.13;7.18;;;;;;;16.37;63.28;93456.66;4953371;28;20093;-77
2022/05/30 05:52:08;;;;;;;11.57;7.47;;;;;;;16.61;63.67;93475.84;4956715;28;20030;-77
2022/05/30 05:54:33;;;;;;;14.18;8.25;;;;;;;17.00;60.42;93473.78;4958010;28;20521;-77
2022/05/30 05:56:59;;;;;;;13.60;7.57;;;;;;;17.05;61.17;93457.38;4955473;28;20074;-77
2022/05/30 05:59:24;;;;;;;17.77;7.13;;;;;;;17.05;61.98;93473.47;4955491;28;20130;-76
2022/05/30 06:01:50;;;;;;;14.13;7.93;;;;;;;17.28;60.93;93478.03;4950765;28;20418;-77
2022/05/30 06:04:16;;;;;;;12.30;7.35;;;;;;;17.09;61.45;93479.69;4962958;28;20018;-76
2022/05/30 06:06:41;;;;;;;15.90;7.57;;;;;;;17.12;62.04;93476.25;4982074;28;20031;-77
2022/05/30 06:09:07;;;;;;;15.95;8.88;;;;;;;17.29;60.38;93458.09;4983526;28;20607;-77
2022/05/30 06:11:33;;;;;;;15.75;8.77;;;;;;;16.88;60.85;93465.91;4979462;28;20404;-76
2022/05/30 06:13:59;;;;;;;14.73;8.23;;;;;;;16.55;64.27;93481.88;4981326;28;20450;-76
2022/05/30 06:16:30;;;;;;;16.50;8.43;;;;;;;17.11;62.59;93490.81;4985762;28;20496;-75
2022/05/30 06:18:59;;;;;;;17.67;9.10;;;;;;;17.17;61.94;93484.03;4983500;28;20014;-76
2022/05/30 06:21:26;;;;;;;15.40;9.38;;;;;;;17.63;59.98;93494.66;4983363;28;20767;-76
2022/05/30 06:23:53;;;;;;;13.38;8.50;;;;;;;17.66;58.65;93488.53;4986515;28;20038;-76
2022/05/30 06:26:18;;;;;;;16.17;8.50;;;;;;;17.84;58.40;93489.56;4968479;28;20536;-76
2022/05/30 06:28:44;;;;;;;14.60;8.68;;;;;;;17.94;58.36;93491.59;4978139;28;20042;-76
2022/05/30 06:31:22;;;;;;;17.20;8.38;;;;;;;17.71;59.23;93480.16;4983139;28;20030;-77
2022/05/30 06:33:47;;;;;;;10.80;7.95;;;;;;;17.90;59.75;93461.16;4985147;28;20073;-77
2022/05/30 06:36:15;;;;;;;14.77;7.80;;;;;;;18.27;58.79;93503.50;4981760;28;20035;-78
2022/05/30 06:38:41;;;;;;;15.75;8.00;;;;;;;18.06;58.34;93476.34;4972519;28;20133;-77
2022/05/30 06:41:15;;;;;;;11.70;7.70;;;;;;;17.92;59.04;93507.31;4980999;28;20315;-77
2022/05/30 06:43:42;;;;;;;12.35;7.55;;;;;;;18.04;58.46;93509.78;4974102;28;20074;-76
2022/05/30 06:46:09;;;;;;;14.02;8.23;;;;;;;18.21;58.01;93507.66;4978563;28;20038;-76
2022/05/30 06:48:35;;;;;;;13.25;8.93;;;;;;;18.28;57.28;93513.16;4981133;28;20078;-77
2022/05/30 06:51:07;;;;;;;11.90;8.43;;;;;;;17.93;59.43;93519.66;4980958;28;20125;-76
2022/05/30 06:53:33;;;;;;;12.13;7.63;;;;;;;17.63;58.58;93475.06;4976118;28;20225;-76
2022/05/30 06:55:59;;;;;;;16.35;7.85;;;;;;;17.61;59.71;93523.81;4964719;28;20042;-77
2022/05/30 06:58:24;;;;;;;13.82;8.48;;;;;;;17.57;59.89;93534.53;4983739;28;20029;-76
2022/05/30 07:00:50;;;;;;;11.30;7.93;;;;;;;17.13;61.03;93522.72;4976055;28;20124;-76
2022/05/30 07:03:17;;;;;;;13.40;7.35;;;;;;;16.71;62.92;93528.19;4977878;28;20114;-76
2022/05/30 07:05:45;;;;;;;13.25;7.70;;;;;;;16.99;62.26;93525.97;4974448;28;20037;-77
2022/05/30 07:08:12;;;;;;;20.23;7.53;;;;;;;17.20;60.86;93514.81;4980128;28;20076;-76
2022/05/30 07:10:38;;;;;;;11.68;8.43;;;;;;;17.27;61.04;93528.31;4973979;28;20392;-76
2022/05/30 07:13:05;;;;;;;17.58;8.68;;;;;;;16.91;63.16;93518.16;4976180;28;20088;-77
2022/05/30 07:15:35;;;;;;;14.57;8.55;;;;;;;17.18;62.38;93519.75;4978495;28;20379;-77
2022/05/30 07:18:07;;;;;;;12.90;7.55;;;;;;;17.10;63.34;93532.28;4976227;28;20050;-77
2022/05/30 07:20:33;;;;;;;13.20;7.93;;;;;;;17.11;63.51;93490.06;4974006;28;20046;-76
2022/05/30 07:22:58;;;;;;;13.55;8.88;;;;;;;17.53;61.80;93524.88;4977349;28;20073;-77
2022/05/30 07:25:23;;;;;;;12.68;8.18;;;;;;;17.80;62.20;93515.59;4985241;28;20580;-76
2022/05/30 07:27:49;;;;;;;13.25;7.72;;;;;;;18.14;62.93;93529.13;4984329;28;20030;-76
2022/05/30 07:30:16;;;;;;;25.08;8.82;;;;;;;17.50;62.28;93504.09;4983993;28;20050;-77
2022/05/30 07:32:41;;;;;;;16.45;9.75;;;;;;;17.79;61.77;93508.72;4983068;28;20046;-77
2022/05/30 07:35:07;;;;;;;13.73;8.40;;;;;;;18.18;62.04;93524.56;4971851;28;20425;-76
2022/05/30 07:37:32;;;;;;;15.07;8.18;;;;;;;18.00;60.68;93519.72;4954158;28;20596;-76
2022/05/30 07:39:57;;;;;;;19.85;8.90;;;;;;;18.20;60.10;93514.97;4973450;28;20034;-77
2022/05/30 07:42:23;;;;;;;16.13;8.73;;;;;;;18.29;59.75;93503.91;4970524;28;20041;-76
2022/05/30 07:44:48;;;;;;;14.18;8.35;;;;;;;18.72;58.44;93527.47;4981013;28;20499;-77
2022/05/30 07:47:17;;;;;;;13.40;7.18;;;;;;;18.68;60.06;93532.00;4983937;28;20056;-77
2022/05/30 07:49:43;;;;;;;12.43;8.60;;;;;;;18.55;61.33;93525.34;4978830;28;20077;-76
2022/05/30 07:52:09;;;;;;;15.90;9.07;;;;;;;18.94;59.23;93516.88;4976888;28;20025;-76
2022/05/30 07:54:35;;;;;;;13.00;7.88;;;;;;;18.45;61.40;93499.06;4980226;28;20042;-76
2022/05/30 07:57:04;;;;;;;11.27;7.30;;;;;;;18.57;59.11;93504.22;4976401;28;20133;-77
2022/05/30 07:59:29;;;;;;;13.43;7.65;;;;;;;18.81;58.65;93511.78;4981704;28;20039;-76
2022/05/30 08:01:56;;;;;;;18.13;9.75;;;;;;;19.04;58.83;93516.19;4984988;28;20069;-77
2022/05/30 08:04:22;;;;;;;10.55;7.38;;;;;;;19.42;59.08;93534.56;4971257;28;21194;-77
2022/05/30 08:06:47;;;;;;;15.20;7.70;;;;;;;19.26;57.71;93513.25;4975974;28;20030;-77
2022/05/30 08:09:13;;;;;;;12.23;7.35;;;;;;;19.06;57.45;93530.06;4976570;28;20041;-76
2022/05/30 08:11:38;;;;;;;15.32;7.68;;;;;;;19.16;56.13;93521.28;4982592;28;20456;-76
2022/05/30 08:14:04;;;;;;;16.95;7.10;;;;;;;18.71;58.35;93522.44;4982857;28;20050;-76
2022/05/30 08:16:29;;;;;;;9.77;6.18;;;;;;;18.81;57.44;93540.63;4977634;28;20037;-75
2022/05/30 08:18:54;;;;;;;15.02;8.68;;;;;;;18.92;55.53;93541.47;4968976;28;20038;-76
2022/05/30 08:21:20;;;;;;;9.73;6.68;;;;;;;19.03;54.54;93530.78;4973922;28;20039;-76
2022/05/30 08:23:45;;;;;;;8.73;6.05;;;;;;;18.60;56.70;93535.00;4969082;28;20053;-77
2022/05/30 08:26:13;;;;;;;9.75;6.35;;;;;;;18.70;56.47;93505.50;4980631;28;20409;-77
2022/05/30 08:28:40;;;;;;;16.88;7.15;;;;;;;18.84;57.06;93539.88;4971176;28;20046;-77
2022/05/30 08:31:05;;;;;;;15.05;8.07;;;;;;;18.94;58.37;93539.19;4980718;28;20078;-77
2022/05/30 08:33:31;;;;;;;8.20;6.05;;;;;;;19.22;56.28;93538.66;4978969;28;20049;-76
2022/05/30 08:36:01;;;;;;;16.92;7.63;;;;;;;19.18;55.25;93537.84;4979347;28;20112;-77
2022/05/30 08:38:33;;;;;;;11.80;7.70;;;;;;;19.16;55.78;93545.56;4973907;28;20038;-77
2022/05/30 08:43:49;;;;;;;15.70;7.03;;;;;;;19.28;54.48;93545.25;4983690;28;20554;-78
2022/05/30 08:46:35;;;;;;;15.70;8.27;;;;;;;19.22;54.85;93544.03;4970016;28;20038;-76
2022/05/30 08:49:13;;;;;;;9.77;6.07;;;;;;;18.94;55.29;93541.13;4976836;28;20046;-76
2022/05/30 08:52:15;;;;;;;11.18;5.65;;;;;;;18.98;57.09;93536.53;4981851;28;20509;-76
2022/05/30 08:54:59;;;;;;;10.32;6.60;;;;;;;19.13;56.48;93540.88;4981666;28;20046;-77
2022/05/30 08:57:34;;;;;;;10.98;6.68;;;;;;;19.35;54.04;93539.91;4983983;28;20077;-76
2022/05/30 09:00:07;;;;;;;9.93;6.60;;;;;;;19.54;55.01;93539.69;4975981;28;20124;-77
2022/05/30 09:02:40;;;;;;;7.32;5.38;;;;;;;19.73;54.97;93536.72;4969684;28;20153;-77
2022/05/30 09:05:10;;;;;;;10.32;6.45;;;;;;;19.25;54.34;93543.31;4981892;28;20047;-77
2022/05/30 09:07:46;;;;;;;11.30;7.15;;;;;;;19.14;53.61;93524.34;4977451;28;20035;-76
2022/05/30 09:10:20;;;;;;;16.08;6.43;;;;;;;19.49;53.00;93529.25;4980799;28;20036;-77
2022/05/30 09:12:52;;;;;;;9.05;5.35;;;;;;;19.49;54.32;93525.78;4978983;28;20026;-77
2022/05/30 09:15:34;;;;;;;12.50;6.07;;;;;;;19.63;53.06;93537.44;4978252;28;20126;-77
2022/05/30 09:18:00;;;;;;;9.35;5.80;;;;;;;19.84;52.88;93549.50;4979182;28;20085;-76
2022/05/30 09:20:27;;;;;;;10.32;5.68;;;;;;;19.75;52.71;93539.81;4971551;28;20034;-77
2022/05/30 09:22:53;;;;;;;9.98;6.60;;;;;;;19.94;52.66;93554.19;4973175;28;20037;-77
2022/05/30 09:28:09;;;;;;;9.20;5.75;;;;;;;19.86;51.48;93557.97;4980757;28;20021;-77
2022/05/30 09:30:43;;;;;;;10.85;6.38;;;;;;;20.04;51.68;93564.25;4977969;28;20026;-76
2022/05/30 09:33:09;;;;;;;;;;;;;;;20.16;52.17;93563.91;4981342;28;20354;-76
2022/05/30 09:35:35;;;;;;;14.43;6.38;;;;;;;19.95;52.99;93558.41;4977391;28;19917;-76
2022/05/30 09:38:07;;;;;;;8.73;5.70;;;;;;;20.14;52.29;93572.38;4977628;28;20035;-76
2022/05/30 09:40:47;;;;;;;8.98;6.20;;;;;;;19.95;52.89;93548.38;4964655;28;20466;-77
2022/05/30 09:43:39;;;;;;;10.43;6.00;;;;;;;19.73;52.85;93547.50;4979057;28;20354;-77
2022/05/30 09:46:26;;;;;;;8.68;5.63;;;;;;;19.72;53.84;93545.97;4977636;28;20022;-76
2022/05/30 09:49:15;;;;;;;9.05;5.93;;;;;;;20.12;52.51;93541.53;4984513;28;20060;-76
2022/05/30 09:51:42;;;;;;;9.45;6.10;;;;;;;20.23;51.59;93550.50;4980155;28;20038;-75
2022/05/30 09:54:11;;;;;;;12.85;7.47;;;;;;;19.87;52.38;93546.03;4981633;28;20088;-77
2022/05/30 09:56:41;;;;;;;12.57;7.40;;;;;;;19.98;54.42;93557.66;4983031;28;20034;-77
2022/05/30 09:59:26;;;;;;;6.95;5.13;;;;;;;20.31;52.94;93560.16;4985000;28;20051;-76
2022/05/30 10:01:53;;;;;;;9.90;6.55;;;;;;;20.40;52.14;93557.88;4980212;28;20103;-77
2022/05/30 10:04:21;;;;;;;15.15;5.95;;;;;;;20.50;53.44;93551.72;4983943;28;20025;-76
2022/05/30 10:07:05;;;;;;;9.23;6.40;;;;;;;20.41;52.62;93554.03;4979870;28;20023;-76
2022/05/30 10:09:33;;;;;;;8.60;6.00;;;;;;;20.53;52.23;93545.56;4976762;28;20043;-76
2022/05/30 10:11:59;;;;;;;11.75;6.18;;;;;;;20.28;52.25;93547.41;4985142;28;20840;-77
2022/05/30 10:14:28;;;;;;;9.75;6.45;;;;;;;20.23;52.58;93555.88;4979201;28;20054;-77
2022/05/30 10:17:10;;;;;;;9.57;5.78;;;;;;;20.34;51.98;93540.47;4984967;28;20148;-77
2022/05/30 10:19:40;;;;;;;7.50;5.72;;;;;;;20.21;52.22;93544.69;4987597;28;20050;-77
2022/05/30 10:28:37;;;;;;;10.93;5.95;;;;;;;20.23;51.99;93561.28;4983207;28;20053;-77
2022/05/30 10:31:16;;;;;;;7.20;5.20;;;;;;;20.17;51.14;93560.88;4979026;28;20062;-77
2022/05/30 10:34:18;;;;;;;9.32;6.30;;;;;;;20.48;51.90;93554.03;4980843;28;20109;-76
2022/05/30 10:37:05;;;;;;;12.05;5.60;;;;;;;20.36;49.72;93540.88;4988771;28;20487;-76
2022/05/30 10:39:56;;;;;;;10.45;6.18;;;;;;;20.73;49.05;93558.75;4975713;28;20074;-76
2022/05/30 10:42:56;;;;;;;9.45;6.55;;;;;;;20.96;50.06;93556.50;4965252;28;20527;-76
2022/05/30 10:45:46;;;;;;;10.45;6.07;;;;;;;21.23;50.32;93554.94;4973394;28;20077;-76
2022/05/30 10:49:00;;;;;;;11.48;6.43;;;;;;;21.13;49.52;93555.72;4975167;28;20165;-77
2022/05/30 10:51:29;;;;;;;9.18;5.45;;;;;;;21.09;49.21;93546.06;4956519;28;20043;-76
2022/05/30 10:54:04;;;;;;;15.98;9.38;;;;;;;21.33;48.22;93551.47;4944190;28;20201;-77
2022/05/30 10:56:40;;;;;;;;;;;;;;;21.37;48.11;93554.19;4946566;28;20047;-77
2022/05/30 10:59:31;;;;;;;9.50;5.03;;;;;;;21.07;48.55;93556.50;4949410;28;19925;-77
2022/05/30 11:02:18;;;;;;;8.93;4.63;;;;;;;20.75;49.38;93548.31;4952543;28;20034;-76
2022/05/30 11:05:10;;;;;;;8.88;4.78;;;;;;;20.90;48.78;93552.63;4950843;28;20121;-76
2022/05/30 11:07:48;;;;;;;9.60;5.68;;;;;;;21.05;49.45;93543.38;4949010;28;20098;-77
2022/05/30 11:10:32;;;;;;;7.97;5.55;;;;;;;20.82;49.68;93545.63;4953994;28;20042;-76
2022/05/30 11:13:31;;;;;;;10.20;5.53;;;;;;;20.53;51.17;93545.56;4954533;28;20125;-77
2022/05/30 11:16:28;;;;;;;12.60;5.65;;;;;;;20.86;49.23;93549.88;4972659;28;20057;-76
2022/05/30 11:19:15;;;;;;;7.05;5.03;;;;;;;20.89;49.67;93551.06;4972475;28;20050;-77
2022/05/30 11:21:59;;;;;;;6.85;4.65;;;;;;;20.93;49.69;93546.44;4972481;28;20046;-76
2022/05/30 11:24:25;;;;;;;8.85;5.13;;;;;;;20.93;48.46;93554.53;4978936;28;20033;-76
2022/05/30 11:27:03;;;;;;;7.60;5.18;;;;;;;21.22;50.51;93558.81;4977859;28;20042;-76
2022/05/30 11:30:16;;;;;;;9.57;5.32;;;;;;;21.46;49.56;93558.03;4976473;28;20038;-76
2022/05/30 11:33:01;;;;;;;7.90;4.75;;;;;;;21.46;48.81;93555.31;4963761;28;20038;-76
2022/05/30 11:35:29;;;;;;;7.22;4.93;;;;;;;21.39;49.04;93552.66;4982420;28;20045;-76
2022/05/30 11:38:04;;;;;;;11.93;4.68;;;;;;;21.02;48.42;93536.78;4977548;28;20158;-76
2022/05/30 11:40:53;;;;;;;9.25;5.18;;;;;;;21.21;49.63;93546.47;4972941;28;20082;-76
2022/05/30 11:43:44;;;;;;;14.18;5.57;;;;;;;21.22;49.28;93548.00;4976347;28;20026;-76
2022/05/30 11:46:18;;;;;;;6.80;4.32;;;;;;;21.38;48.33;93545.69;4980634;28;20034;-77
2022/05/30 11:48:53;;;;;;;11.57;4.93;;;;;;;21.48;50.81;93533.31;4981849;28;20476;-76
2022/05/30 11:51:21;;;;;;;8.80;4.95;;;;;;;21.78;47.99;93541.78;4980244;28;20454;-76
2022/05/30 11:54:06;;;;;;;9.23;4.40;;;;;;;21.28;45.35;93542.97;4978272;28;20417;-76
2022/05/30 11:57:00;;;;;;;6.68;4.03;;;;;;;21.54;46.55;93537.16;4979954;28;20054;-76
2022/05/30 11:59:51;;;;;;;6.82;4.07;;;;;;;21.36;45.65;93542.56;4971811;28;20039;-76
2022/05/30 12:02:23;;;;;;;12.82;4.78;;;;;;;21.80;45.55;93538.72;4980522;28;20068;-76
2022/05/30 12:05:17;;;;;;;8.75;4.32;;;;;;;21.93;45.46;93547.94;4981018;28;20073;-76